Time;durP1;ratioP1;P1;durP2;ratioP2;P2;SDS_P1;SDS_P2;PMS_P1;PMS_P2;Temp;Humidity;BMP_temperature;BMP_pressure;BME280_temperature;BME280_humidity;BME280_pressure;Samples;Min_cycle;Max_cycle;Signal;HPM_P1;HPM_P2
2021/12/11 00:01:53;;;;;;;35.60;20.00;;;;;;;2.24;100.00;100011.53;5041188;28;20232;-57
2021/12/11 00:04:23;;;;;;;30.63;19.03;;;;;;;2.48;100.00;100015.47;5036395;28;20239;-56
2021/12/11 00:06:52;;;;;;;35.00;19.10;;;;;;;2.38;100.00;100020.47;5035718;28;20657;-54
2021/12/11 00:09:21;;;;;;;29.63;19.53;;;;;;;2.85;98.99;100027.44;5034467;28;20908;-56
2021/12/11 00:11:52;;;;;;;33.80;19.20;;;;;;;2.49;99.01;100030.16;5036232;28;20236;-56
2021/12/11 00:14:18;;;;;;;30.07;19.80;;;;;;;2.22;99.79;100036.56;5035888;28;20258;-56
2021/12/11 00:16:45;;;;;;;29.93;18.90;;;;;;;1.80;99.71;100034.75;5038050;28;20328;-56
2021/12/11 00:19:15;;;;;;;31.53;19.97;;;;;;;1.48;100.00;100035.72;5031799;28;20633;-55
2021/12/11 00:21:43;;;;;;;29.03;18.37;;;;;;;1.46;100.00;100037.38;5025810;28;20247;-57
2021/12/11 00:24:13;;;;;;;23.97;16.30;;;;;;;1.27;100.00;100036.94;5031776;28;20323;-55
2021/12/11 00:26:42;;;;;;;27.80;16.80;;;;;;;1.00;100.00;100043.97;5042784;28;20233;-55
2021/12/11 00:29:12;;;;;;;28.13;17.03;;;;;;;0.81;100.00;100046.09;5033190;28;20292;-55
2021/12/11 00:31:44;;;;;;;29.37;18.00;;;;;;;0.73;100.00;100052.72;5037614;28;20879;-56
2021/12/11 00:34:10;;;;;;;33.77;17.67;;;;;;;0.56;100.00;100060.03;5038960;28;20257;-55
2021/12/11 00:36:37;;;;;;;28.93;19.17;;;;;;;0.42;100.00;100063.91;5042180;28;20292;-53
2021/12/11 00:39:06;;;;;;;30.07;18.00;;;;;;;0.28;100.00;100063.53;5042491;28;20258;-55
2021/12/11 00:41:33;;;;;;;26.60;16.17;;;;;;;0.24;100.00;100078.03;5040235;28;20233;-54
2021/12/11 00:44:01;;;;;;;32.40;17.83;;;;;;;0.17;100.00;100072.63;5045346;28;20641;-54
2021/12/11 00:46:31;;;;;;;30.80;17.87;;;;;;;0.17;100.00;100082.97;5044824;28;20228;-56
2021/12/11 00:49:07;;;;;;;28.13;16.30;;;;;;;0.21;100.00;100080.53;5044523;28;20258;-54
2021/12/11 00:51:34;;;;;;;23.00;16.70;;;;;;;0.44;100.00;100090.66;5035327;28;20232;-54
2021/12/11 00:54:01;;;;;;;26.60;17.90;;;;;;;0.48;100.00;100098.53;5045660;28;20240;-53
2021/12/11 00:56:30;;;;;;;27.57;17.47;;;;;;;0.56;100.00;100100.47;5040665;28;20328;-54
2021/12/11 00:59:00;;;;;;;29.97;17.70;;;;;;;0.57;100.00;100112.56;5035130;28;20245;-54
2021/12/11 01:01:30;;;;;;;23.00;16.27;;;;;;;0.54;100.00;100117.63;5038890;28;20270;-55
2021/12/11 01:04:01;;;;;;;34.70;20.03;;;;;;;0.53;100.00;100115.84;5035879;28;20239;-54
2021/12/11 01:06:30;;;;;;;29.23;18.70;;;;;;;0.80;100.00;100113.19;5038877;28;20235;-55
2021/12/11 01:09:01;;;;;;;30.23;18.67;;;;;;;0.79;100.00;100120.09;5044259;28;20836;-55
2021/12/11 01:11:40;;;;;;;32.87;20.13;;;;;;;0.88;100.00;100124.66;5043571;28;20239;-55
2021/12/11 01:14:17;;;;;;;33.10;20.60;;;;;;;0.76;100.00;100130.31;5028213;28;20253;-55
2021/12/11 01:16:52;;;;;;;29.00;18.03;;;;;;;0.78;100.00;100136.44;5041939;28;20238;-55
2021/12/11 01:19:21;;;;;;;29.83;18.80;;;;;;;0.88;100.00;100138.44;5031900;28;20242;-54
2021/12/11 01:21:57;;;;;;;32.10;19.23;;;;;;;0.90;100.00;100144.50;5031813;28;20323;-55
2021/12/11 01:24:41;;;;;;;29.53;16.37;;;;;;;0.77;100.00;100144.97;5032010;28;20240;-55
2021/12/11 01:27:10;;;;;;;32.73;18.73;;;;;;;0.62;100.00;100147.13;5026221;28;20238;-55
2021/12/11 01:29:36;;;;;;;25.63;16.93;;;;;;;0.52;100.00;100150.28;5041256;28;20287;-54
2021/12/11 01:32:06;;;;;;;33.13;17.70;;;;;;;0.38;100.00;100148.16;5042791;28;20716;-54
2021/12/11 01:34:33;;;;;;;26.70;18.40;;;;;;;0.33;100.00;100139.41;5044393;28;20269;-53
2021/12/11 01:36:59;;;;;;;30.03;18.43;;;;;;;0.35;100.00;100142.91;5041725;28;20319;-55
2021/12/11 01:39:30;;;;;;;29.43;16.87;;;;;;;0.39;100.00;100149.91;5034934;28;20834;-54
2021/12/11 01:41:57;;;;;;;27.87;18.90;;;;;;;0.43;100.00;100156.91;5040665;28;20259;-54
2021/12/11 01:44:29;;;;;;;28.47;18.10;;;;;;;0.46;100.00;100164.78;5040685;28;20242;-54
2021/12/11 01:47:00;;;;;;;35.37;22.00;;;;;;;0.41;100.00;100166.31;5043742;28;20240;-54
2021/12/11 01:49:27;;;;;;;28.47;19.13;;;;;;;0.42;100.00;100168.09;5036756;28;20239;-54
2021/12/11 01:51:58;;;;;;;30.57;19.27;;;;;;;0.51;100.00;100177.81;5040544;28;21007;-54
2021/12/11 01:54:29;;;;;;;31.27;19.83;;;;;;;0.53;100.00;100177.84;5043494;28;20708;-54
2021/12/11 01:57:00;;;;;;;31.83;21.43;;;;;;;0.59;100.00;100180.63;5043711;28;20238;-53
2021/12/11 01:59:30;;;;;;;29.87;20.63;;;;;;;0.67;100.00;100184.31;5042948;28;20755;-54
2021/12/11 02:02:02;;;;;;;32.30;20.60;;;;;;;0.73;100.00;100187.06;5039714;28;20757;-55
2021/12/11 02:04:31;;;;;;;33.03;19.57;;;;;;;0.81;100.00;100185.63;5044208;28;20330;-55
2021/12/11 02:07:03;;;;;;;36.13;21.33;;;;;;;0.79;100.00;100186.38;5043989;28;20326;-54
2021/12/11 02:09:32;;;;;;;39.23;21.00;;;;;;;0.61;100.00;100187.59;5043310;28;20230;-53
2021/12/11 02:12:05;;;;;;;31.70;19.53;;;;;;;0.59;100.00;100184.06;5031526;28;20296;-54
2021/12/11 02:14:37;;;;;;;28.17;19.23;;;;;;;0.59;100.00;100184.06;5032553;28;20263;-54
2021/12/11 02:17:04;;;;;;;31.87;19.63;;;;;;;0.63;100.00;100188.53;5034306;28;20231;-54
2021/12/11 02:19:36;;;;;;;30.83;19.43;;;;;;;0.65;100.00;100193.72;5040083;28;20243;-54
2021/12/11 02:22:15;;;;;;;35.87;21.07;;;;;;;0.58;100.00;100197.81;5043936;28;20767;-55
2021/12/11 02:24:46;;;;;;;33.07;19.57;;;;;;;0.56;100.00;100203.75;5037069;28;20254;-54
2021/12/11 02:27:16;;;;;;;35.47;19.47;;;;;;;0.45;100.00;100213.78;5043751;28;20317;-54
2021/12/11 02:29:47;;;;;;;37.07;20.80;;;;;;;0.41;100.00;100214.50;5044803;22;20260;-49
2021/12/11 02:32:17;;;;;;;33.20;20.37;;;;;;;0.50;100.00;100214.81;5027631;28;20235;-51
2021/12/11 02:34:47;;;;;;;36.27;22.63;;;;;;;0.58;100.00;100215.91;5040674;28;20227;-50
2021/12/11 02:37:17;;;;;;;31.60;18.23;;;;;;;0.60;100.00;100215.97;5047330;28;20916;-49
2021/12/11 02:39:47;;;;;;;36.40;21.47;;;;;;;0.73;100.00;100215.50;5041821;28;20231;-50
2021/12/11 02:42:17;;;;;;;35.30;20.30;;;;;;;0.82;100.00;100213.19;5044776;28;20284;-50
2021/12/11 02:44:47;;;;;;;51.43;32.83;;;;;;;0.91;100.00;100213.47;5037404;28;20238;-50
2021/12/11 02:47:23;;;;;;;46.13;28.13;;;;;;;0.89;100.00;100220.28;5044414;28;20230;-50
2021/12/11 02:49:53;;;;;;;41.40;26.13;;;;;;;1.34;100.00;100217.28;5037324;28;20238;-51
2021/12/11 02:52:24;;;;;;;36.13;22.57;;;;;;;1.55;100.00;100213.53;5056844;28;20241;-57
2021/12/11 02:54:56;;;;;;;33.93;20.33;;;;;;;1.45;100.00;100217.56;5048461;28;20263;-52
2021/12/11 02:57:32;;;;;;;35.93;22.77;;;;;;;1.36;100.00;100225.94;5054858;28;20420;-50
2021/12/11 03:00:08;;;;;;;37.40;22.90;;;;;;;1.29;100.00;100234.34;5043160;28;20243;-49
2021/12/11 03:02:35;;;;;;;36.30;23.10;;;;;;;1.10;100.00;100232.97;5060256;28;20238;-55
2021/12/11 03:05:09;;;;;;;39.87;26.13;;;;;;;1.01;100.00;100239.56;5062747;28;20240;-51
2021/12/11 03:07:39;;;;;;;40.53;25.13;;;;;;;0.90;100.00;100234.97;5071554;28;20332;-52
2021/12/11 03:10:10;;;;;;;34.40;21.83;;;;;;;0.98;100.00;100240.34;5062552;28;20241;-52
2021/12/11 03:12:37;;;;;;;35.87;24.20;;;;;;;1.00;100.00;100248.16;5061361;28;20427;-51
2021/12/11 03:15:05;;;;;;;35.83;23.80;;;;;;;0.93;100.00;100247.97;5064403;28;20227;-50
2021/12/11 03:17:31;;;;;;;30.27;20.93;;;;;;;1.03;100.00;100248.25;5051618;28;20754;-51
2021/12/11 03:19:58;;;;;;;32.80;20.87;;;;;;;1.04;100.00;100253.47;5052752;28;20777;-50
2021/12/11 03:22:30;;;;;;;31.27;20.30;;;;;;;1.10;100.00;100257.94;5053653;28;20234;-49
2021/12/11 03:24:58;;;;;;;30.03;18.17;;;;;;;1.13;100.00;100260.63;5048788;28;20243;-50
2021/12/11 03:27:24;;;;;;;31.57;19.43;;;;;;;1.13;100.00;100260.63;5046111;28;20268;-48
2021/12/11 03:29:51;;;;;;;32.23;20.53;;;;;;;1.07;100.00;100265.59;5047494;28;20234;-51
2021/12/11 03:32:17;;;;;;;30.67;19.23;;;;;;;1.04;100.00;100270.69;5047288;28;20260;-47
2021/12/11 03:34:46;;;;;;;36.87;21.23;;;;;;;1.07;100.00;100275.94;5049363;28;20243;-51
2021/12/11 03:37:14;;;;;;;38.23;22.27;;;;;;;1.06;100.00;100279.38;5045103;28;20242;-51
2021/12/11 03:39:44;;;;;;;34.60;20.33;;;;;;;1.03;100.00;100284.44;5039296;28;20788;-50
2021/12/11 03:42:15;;;;;;;36.70;20.57;;;;;;;0.93;100.00;100283.28;5040256;28;20231;-50
2021/12/11 03:44:43;;;;;;;36.53;21.83;;;;;;;0.89;100.00;100282.31;5044325;28;20263;-49
2021/12/11 03:47:12;;;;;;;34.50;19.70;;;;;;;0.95;100.00;100294.56;5042513;28;20235;-50
2021/12/11 03:49:39;;;;;;;34.53;20.77;;;;;;;0.91;100.00;100296.19;5047327;28;20238;-50
2021/12/11 03:52:07;;;;;;;35.93;21.60;;;;;;;0.87;100.00;100294.28;5048204;28;20227;-52
2021/12/11 03:54:36;;;;;;;37.77;23.20;;;;;;;0.82;100.00;100303.63;5047857;28;20232;-51
2021/12/11 03:57:04;;;;;;;44.17;23.27;;;;;;;0.76;100.00;100306.00;5049108;28;20296;-51
2021/12/11 03:59:32;;;;;;;39.50;22.50;;;;;;;0.80;100.00;100307.84;5049524;28;20748;-51
2021/12/11 04:02:04;;;;;;;35.97;21.17;;;;;;;0.78;100.00;100311.25;5055048;28;20234;-53
2021/12/11 04:04:34;;;;;;;34.03;21.07;;;;;;;0.71;100.00;100312.75;5057725;28;20224;-52
2021/12/11 04:07:02;;;;;;;37.80;19.77;;;;;;;0.76;100.00;100316.34;5056455;28;20575;-52
2021/12/11 04:09:29;;;;;;;34.40;19.73;;;;;;;0.83;100.00;100322.59;5049447;28;20236;-50
2021/12/11 04:11:57;;;;;;;38.57;21.70;;;;;;;0.81;100.00;100329.41;5052658;28;20268;-50
2021/12/11 04:14:26;;;;;;;39.40;20.93;;;;;;;0.80;100.00;100328.53;5054051;28;20284;-50
2021/12/11 04:16:55;;;;;;;39.57;20.57;;;;;;;0.69;100.00;100328.19;5052712;28;20230;-51
2021/12/11 04:19:22;;;;;;;36.03;20.80;;;;;;;0.86;100.00;100333.91;5058710;28;20729;-50
2021/12/11 04:21:49;;;;;;;37.40;20.33;;;;;;;0.83;100.00;100338.97;5054965;28;20712;-53
2021/12/11 04:24:19;;;;;;;38.77;22.13;;;;;;;0.87;100.00;100343.41;5050191;28;20284;-49
2021/12/11 04:26:47;;;;;;;35.23;19.67;;;;;;;0.76;100.00;100347.34;5045544;28;20343;-52
2021/12/11 04:29:13;;;;;;;42.43;22.80;;;;;;;0.70;100.00;100354.91;5047514;28;20294;-51
2021/12/11 04:31:43;;;;;;;35.60;20.90;;;;;;;0.71;100.00;100359.25;5044639;28;20234;-52
2021/12/11 04:34:13;;;;;;;38.73;21.90;;;;;;;0.61;100.00;100367.53;5046210;28;20717;-51
2021/12/11 04:36:42;;;;;;;38.60;22.10;;;;;;;0.58;100.00;100368.31;5048554;28;20285;-50
2021/12/11 04:39:12;;;;;;;39.93;21.50;;;;;;;0.80;100.00;100375.03;5046680;28;20523;-51
2021/12/11 04:41:48;;;;;;;39.53;22.07;;;;;;;0.67;100.00;100378.06;5053693;28;20291;-52
2021/12/11 04:44:21;;;;;;;35.37;21.83;;;;;;;0.62;100.00;100377.03;5043831;28;20395;-51
2021/12/11 04:46:47;;;;;;;45.37;21.63;;;;;;;0.58;100.00;100388.09;5047483;28;20224;-51
2021/12/11 04:49:23;;;;;;;40.33;20.60;;;;;;;0.54;100.00;100388.81;5046871;28;20239;-46
2021/12/11 04:52:00;;;;;;;34.43;20.17;;;;;;;0.55;100.00;100393.16;5046596;28;20231;-50
2021/12/11 04:54:39;;;;;;;33.63;19.83;;;;;;;0.68;100.00;100400.50;5045388;28;20240;-52
2021/12/11 04:57:36;;;;;;;33.57;18.60;;;;;;;0.62;100.00;100405.44;5040910;28;20234;-51
2021/12/11 05:00:07;;;;;;;32.40;19.07;;;;;;;0.53;100.00;100405.13;5046165;28;20233;-50
2021/12/11 05:03:07;;;;;;;33.13;19.23;;;;;;;0.46;100.00;100419.56;5044137;28;20228;-51
2021/12/11 05:05:52;;;;;;;31.23;17.93;;;;;;;0.50;100.00;100425.72;5045162;28;20231;-51
2021/12/11 05:09:04;;;;;;;33.13;18.40;;;;;;;0.57;100.00;100418.22;5044691;28;20230;-51
2021/12/11 05:11:35;;;;;;;34.97;18.00;;;;;;;0.70;100.00;100432.41;5045424;28;20246;-50
2021/12/11 05:14:02;;;;;;;32.93;18.00;;;;;;;0.78;100.00;100433.56;5045837;28;20707;-50
2021/12/11 05:16:28;;;;;;;35.47;18.57;;;;;;;0.66;100.00;100433.13;5041539;28;20280;-50
2021/12/11 05:18:55;;;;;;;29.03;16.70;;;;;;;0.63;100.00;100433.03;5037526;28;20301;-50
2021/12/11 05:21:23;;;;;;;24.97;14.20;;;;;;;0.52;100.00;100436.94;5044255;28;20288;-52
2021/12/11 05:23:51;;;;;;;27.43;15.80;;;;;;;0.53;100.00;100441.28;5047758;28;20249;-52
2021/12/11 05:26:18;;;;;;;26.13;15.40;;;;;;;0.54;100.00;100458.56;5043875;28;20246;-55
2021/12/11 05:28:45;;;;;;;24.77;13.77;;;;;;;0.52;100.00;100462.78;5043308;28;20342;-50
2021/12/11 05:31:12;;;;;;;22.87;14.83;;;;;;;0.49;100.00;100466.13;5046027;28;20242;-51
2021/12/11 05:33:39;;;;;;;25.77;15.27;;;;;;;0.50;100.00;100467.03;5050016;28;20280;-49
2021/12/11 05:36:07;;;;;;;30.57;17.17;;;;;;;0.41;100.00;100468.44;5050321;28;20389;-52
2021/12/11 05:38:39;;;;;;;28.43;16.60;;;;;;;0.36;100.00;100467.41;5055799;28;20239;-51
2021/12/11 05:41:07;;;;;;;28.87;16.83;;;;;;;0.35;100.00;100470.84;5042800;28;20234;-50
2021/12/11 05:43:35;;;;;;;30.13;15.73;;;;;;;0.36;100.00;100488.06;5052990;28;20712;-51
2021/12/11 05:46:02;;;;;;;32.67;16.60;;;;;;;0.36;100.00;100485.50;5048211;28;20669;-52
2021/12/11 05:48:28;;;;;;;33.07;17.80;;;;;;;0.32;100.00;100491.38;5046067;28;20794;-50
2021/12/11 05:51:00;;;;;;;29.43;16.63;;;;;;;0.36;100.00;100495.81;5048320;28;20270;-52
2021/12/11 05:53:28;;;;;;;33.40;17.23;;;;;;;0.51;100.00;100495.47;5045486;28;20723;-53
2021/12/11 05:55:56;;;;;;;36.73;18.63;;;;;;;0.59;100.00;100503.50;5046757;28;20318;-52
2021/12/11 05:58:44;;;;;;;29.97;16.37;;;;;;;0.53;100.00;100501.59;5045126;28;20335;-51
2021/12/11 06:01:11;;;;;;;28.83;15.43;;;;;;;0.60;100.00;100503.56;5044779;28;20369;-52
2021/12/11 06:03:37;;;;;;;31.70;17.67;;;;;;;0.59;100.00;100513.81;5049236;28;20706;-49
2021/12/11 06:06:04;;;;;;;29.80;16.57;;;;;;;0.60;100.00;100515.59;5044620;28;20266;-49
2021/12/11 06:08:31;;;;;;;36.47;18.37;;;;;;;0.47;100.00;100520.31;5041559;28;20261;-50
2021/12/11 06:11:00;;;;;;;33.80;18.17;;;;;;;0.39;100.00;100520.88;5044602;28;20245;-52
2021/12/11 06:13:29;;;;;;;32.07;16.47;;;;;;;0.35;100.00;100525.06;5045895;28;20734;-50
2021/12/11 06:15:55;;;;;;;30.23;15.37;;;;;;;0.40;100.00;100527.78;5043548;28;20239;-50
2021/12/11 06:18:22;;;;;;;30.47;15.67;;;;;;;0.54;100.00;100536.06;5042218;28;20238;-50
2021/12/11 06:20:49;;;;;;;31.03;15.90;;;;;;;0.56;100.00;100535.28;5046354;28;20300;-50
2021/12/11 06:23:15;;;;;;;24.73;14.90;;;;;;;0.55;100.00;100536.09;5050085;28;20295;-51
2021/12/11 06:25:42;;;;;;;31.27;15.53;;;;;;;0.55;100.00;100542.97;5045216;28;20665;-51
2021/12/11 06:28:10;;;;;;;27.20;15.83;;;;;;;0.51;100.00;100541.97;5049322;28;20275;-51
2021/12/11 06:30:37;;;;;;;30.57;17.27;;;;;;;0.60;100.00;100544.03;5052256;28;20264;-52
2021/12/11 06:33:04;;;;;;;31.57;16.77;;;;;;;0.62;100.00;100539.78;5055217;28;20235;-51
2021/12/11 06:35:38;;;;;;;28.00;17.03;;;;;;;0.59;100.00;100543.13;5055464;28;20288;-52
2021/12/11 06:38:07;;;;;;;29.77;14.97;;;;;;;0.60;100.00;100549.19;5050864;28;20285;-51
2021/12/11 06:40:34;;;;;;;32.13;17.43;;;;;;;0.52;100.00;100550.59;5045187;28;20247;-52
2021/12/11 06:43:01;;;;;;;26.17;16.03;;;;;;;0.45;100.00;100559.81;5043408;28;20250;-52
2021/12/11 06:45:28;;;;;;;31.47;16.97;;;;;;;0.50;100.00;100567.75;5042185;28;20715;-51
2021/12/11 06:47:56;;;;;;;37.23;17.77;;;;;;;0.53;100.00;100571.34;5042294;28;20379;-51
2021/12/11 06:50:22;;;;;;;25.30;16.40;;;;;;;0.53;100.00;100571.34;5042889;28;20236;-51
2021/12/11 06:52:50;;;;;;;31.50;17.43;;;;;;;0.59;100.00;100578.41;5046101;28;20251;-51
2021/12/11 06:55:17;;;;;;;32.57;17.00;;;;;;;0.61;100.00;100585.41;5044290;28;20805;-53
2021/12/11 06:57:44;;;;;;;32.80;17.33;;;;;;;0.75;100.00;100588.47;5043299;28;20796;-52
2021/12/11 07:00:12;;;;;;;34.13;17.33;;;;;;;0.81;100.00;100595.56;5045254;28;20238;-52
2021/12/11 07:02:40;;;;;;;28.97;17.47;;;;;;;0.98;100.00;100606.50;5046171;28;20281;-51
2021/12/11 07:05:07;;;;;;;29.90;16.10;;;;;;;1.09;100.00;100602.59;5045676;28;20292;-56
2021/12/11 07:07:35;;;;;;;26.03;14.87;;;;;;;0.98;100.00;100609.09;5045119;28;20735;-51
2021/12/11 07:10:02;;;;;;;31.90;17.97;;;;;;;1.04;100.00;100617.06;5044431;28;20785;-51
2021/12/11 07:12:28;;;;;;;27.83;15.67;;;;;;;1.05;100.00;100629.16;5041677;28;20254;-50
2021/12/11 07:14:55;;;;;;;32.13;17.87;;;;;;;1.06;100.00;100630.94;5030791;28;20652;-51
2021/12/11 07:17:22;;;;;;;31.53;17.77;;;;;;;1.14;100.00;100642.44;5040379;28;20719;-53
2021/12/11 07:19:50;;;;;;;32.63;18.30;;;;;;;1.16;100.00;100644.25;5040650;28;20646;-50
2021/12/11 07:22:17;;;;;;;33.47;17.57;;;;;;;1.17;100.00;100652.88;5044314;28;20965;-52
2021/12/11 07:24:47;;;;;;;30.70;16.33;;;;;;;1.16;100.00;100659.75;5044260;28;20231;-50
2021/12/11 07:27:14;;;;;;;33.57;16.83;;;;;;;1.15;100.00;100672.63;5044170;28;20317;-50
2021/12/11 07:29:41;;;;;;;37.90;18.87;;;;;;;1.08;100.00;100680.97;5041921;28;20239;-52
2021/12/11 07:32:08;;;;;;;38.67;20.38;;;;;;;1.14;100.00;100676.03;5035759;28;20430;-52
2021/12/11 07:34:35;;;;;;;44.22;25.00;;;;;;;1.03;100.00;100679.94;5043284;28;20862;-52
2021/12/11 07:37:03;;;;;;;40.73;20.70;;;;;;;0.97;100.00;100680.59;5044185;28;20315;-49
2021/12/11 07:39:30;;;;;;;35.50;19.77;;;;;;;0.99;100.00;100697.06;5039956;28;20285;-52
2021/12/11 07:41:57;;;;;;;37.27;16.70;;;;;;;1.01;100.00;100704.84;5042546;28;20292;-50
2021/12/11 07:44:25;;;;;;;28.10;15.30;;;;;;;0.95;100.00;100700.34;5042561;28;20288;-50
2021/12/11 07:46:54;;;;;;;33.27;17.03;;;;;;;0.94;100.00;100709.78;5039516;28;20255;-50
2021/12/11 07:49:20;;;;;;;33.07;17.23;;;;;;;0.85;100.00;100714.63;5041674;28;20303;-51
2021/12/11 07:51:48;;;;;;;34.33;17.50;;;;;;;0.90;100.00;100720.84;5045904;28;20759;-52
2021/12/11 07:54:15;;;;;;;32.10;17.50;;;;;;;0.70;100.00;100725.25;5049123;28;20543;-51
2021/12/11 07:56:42;;;;;;;29.17;17.03;;;;;;;0.78;100.00;100728.13;5048460;28;20227;-50
2021/12/11 07:59:09;;;;;;;31.57;15.00;;;;;;;0.81;100.00;100728.25;5047665;28;20254;-50
2021/12/11 08:01:39;;;;;;;23.57;15.20;;;;;;;0.72;100.00;100730.47;5049214;28;20228;-51
2021/12/11 08:04:06;;;;;;;32.10;16.00;;;;;;;0.63;100.00;100730.13;5048255;28;20242;-52
2021/12/11 08:06:34;;;;;;;29.53;14.80;;;;;;;0.73;100.00;100737.41;5049592;28;20272;-52
2021/12/11 08:09:01;;;;;;;29.03;15.50;;;;;;;0.71;100.00;100736.47;5058633;28;20299;-50
2021/12/11 08:11:29;;;;;;;27.80;15.20;;;;;;;0.70;100.00;100745.03;5049244;28;20236;-51
2021/12/11 08:13:58;;;;;;;23.63;13.63;;;;;;;0.80;100.00;100751.44;5047738;28;20704;-51
2021/12/11 08:16:31;;;;;;;28.73;14.03;;;;;;;0.72;100.00;100756.31;5047441;28;20312;-52
2021/12/11 08:18:58;;;;;;;28.97;15.07;;;;;;;0.69;100.00;100766.53;5049434;28;20551;-51
2021/12/11 08:21:24;;;;;;;31.20;16.30;;;;;;;0.76;100.00;100765.06;5048207;28;20623;-51
2021/12/11 08:23:54;;;;;;;38.87;17.80;;;;;;;0.45;100.00;100767.31;5051106;28;20251;-49
2021/12/11 08:26:21;;;;;;;27.17;15.83;;;;;;;0.40;100.00;100770.53;5048916;28;20234;-52
2021/12/11 08:28:50;;;;;;;35.73;16.73;;;;;;;0.22;100.00;100776.72;5048802;28;20676;-51
2021/12/11 08:31:17;;;;;;;31.60;14.90;;;;;;;0.09;100.00;100779.59;5045353;22;20238;-53
2021/12/11 08:33:44;;;;;;;24.97;13.80;;;;;;;-0.06;100.00;100779.84;5017671;28;20294;-56
2021/12/11 08:36:11;;;;;;;28.43;13.07;;;;;;;-0.19;100.00;100784.41;5025457;28;20254;-54
2021/12/11 08:38:37;;;;;;;24.57;15.27;;;;;;;-0.13;100.00;100787.28;5036288;28;20668;-58
2021/12/11 08:41:07;;;;;;;29.10;15.37;;;;;;;-0.04;100.00;100793.69;5032488;28;20259;-56
2021/12/11 08:43:34;;;;;;;28.33;15.13;;;;;;;0.05;100.00;100794.91;5022812;28;20745;-56
2021/12/11 08:46:09;;;;;;;24.50;13.73;;;;;;;0.13;100.00;100802.16;5028502;28;20243;-56
2021/12/11 08:48:36;;;;;;;22.70;12.37;;;;;;;0.07;100.00;100801.00;5018577;28;20246;-54
2021/12/11 08:51:07;;;;;;;21.37;11.10;;;;;;;-0.10;100.00;100806.34;5034811;28;20243;-54
2021/12/11 08:53:34;;;;;;;20.63;11.60;;;;;;;-0.04;100.00;100806.59;5036280;28;20234;-56
2021/12/11 08:56:01;;;;;;;24.80;12.33;;;;;;;-0.09;100.00;100805.53;5028670;28;20585;-54
2021/12/11 08:58:30;;;;;;;17.67;11.27;;;;;;;-0.01;100.00;100814.47;5024566;28;20275;-54
2021/12/11 09:01:02;;;;;;;24.40;12.73;;;;;;;0.03;100.00;100815.47;5028739;28;20259;-54
2021/12/11 09:03:36;;;;;;;21.00;13.37;;;;;;;0.11;100.00;100828.72;5023895;28;20269;-55
2021/12/11 09:06:06;;;;;;;19.87;11.40;;;;;;;0.16;100.00;100833.25;5012991;28;20701;-55
2021/12/11 09:08:36;;;;;;;19.17;11.13;;;;;;;0.26;100.00;100838.81;5032901;28;20312;-55
2021/12/11 09:11:06;;;;;;;16.13;10.37;;;;;;;0.28;100.00;100843.25;5023472;28;21103;-54
2021/12/11 09:13:36;;;;;;;17.23;10.60;;;;;;;0.09;100.00;100846.72;5036195;28;20290;-54
2021/12/11 09:16:10;;;;;;;18.63;11.33;;;;;;;0.04;100.00;100850.81;5032437;28;20263;-54
2021/12/11 09:18:41;;;;;;;14.53;10.13;;;;;;;-0.16;100.00;100852.50;5024785;28;20302;-53
2021/12/11 09:21:12;;;;;;;14.87;9.87;;;;;;;-0.16;100.00;100852.50;5026556;28;20832;-55
2021/12/11 09:23:43;;;;;;;13.13;9.13;;;;;;;-0.07;100.00;100860.69;5030564;28;20222;-53
2021/12/11 09:26:13;;;;;;;23.33;12.73;;;;;;;0.00;100.00;100859.25;5020759;28;21084;-54
2021/12/11 09:28:43;;;;;;;22.00;12.03;;;;;;;0.26;100.00;100864.63;5029528;28;20226;-55
2021/12/11 09:31:14;;;;;;;19.47;11.60;;;;;;;0.02;100.00;100867.03;5021144;28;20285;-54
2021/12/11 09:33:47;;;;;;;16.37;10.23;;;;;;;0.01;100.00;100865.28;5025633;28;20233;-54
2021/12/11 09:36:17;;;;;;;21.60;12.53;;;;;;;-0.13;100.00;100870.72;5012482;28;20239;-55
2021/12/11 09:38:49;;;;;;;16.93;10.73;;;;;;;-0.17;100.00;100860.19;5014295;28;20666;-54
2021/12/11 09:41:19;;;;;;;19.13;11.30;;;;;;;-0.37;100.00;100864.47;5019661;28;20317;-54
2021/12/11 09:43:48;;;;;;;23.43;11.33;;;;;;;-0.34;100.00;100865.47;5018185;28;20232;-55
2021/12/11 09:46:19;;;;;;;18.80;10.87;;;;;;;-0.19;100.00;100870.44;5025568;28;20316;-57
2021/12/11 09:48:48;;;;;;;22.27;10.47;;;;;;;0.01;100.00;100870.44;5018356;28;20646;-54
2021/12/11 09:51:18;;;;;;;21.30;11.97;;;;;;;0.14;100.00;100876.22;5029883;28;20235;-54
2021/12/11 09:53:48;;;;;;;17.30;10.57;;;;;;;0.20;100.00;100875.56;5033891;28;20239;-53
2021/12/11 09:56:18;;;;;;;20.63;11.43;;;;;;;0.28;100.00;100875.91;5017873;28;20270;-54
2021/12/11 09:58:45;;;;;;;21.30;12.10;;;;;;;0.40;100.00;100884.19;5017362;28;20231;-55
2021/12/11 10:01:15;;;;;;;18.43;11.30;;;;;;;0.42;100.00;100895.44;5014559;28;20489;-54
2021/12/11 10:03:47;;;;;;;21.90;12.63;;;;;;;0.38;100.00;100896.13;5021956;28;20655;-55
2021/12/11 10:06:38;;;;;;;23.07;12.33;;;;;;;0.33;100.00;100908.84;5023610;28;20778;-55
2021/12/11 10:09:17;;;;;;;18.17;11.50;;;;;;;0.38;100.00;100907.34;5030341;28;20716;-53
2021/12/11 10:11:45;;;;;;;19.97;11.37;;;;;;;0.33;100.00;100910.56;5018348;28;20238;-55
2021/12/11 10:14:16;;;;;;;18.67;10.10;;;;;;;0.35;100.00;100917.56;5031255;28;20271;-53
2021/12/11 10:16:48;;;;;;;16.37;11.13;;;;;;;0.33;100.00;100914.03;5020731;28;20315;-55
2021/12/11 10:19:17;;;;;;;17.73;10.77;;;;;;;0.13;100.00;100917.44;5018866;28;20268;-54
2021/12/11 10:21:49;;;;;;;17.23;10.53;;;;;;;0.02;100.00;100932.44;5022311;28;20323;-54
2021/12/11 10:24:18;;;;;;;19.03;11.57;;;;;;;-0.03;100.00;100927.09;5033870;28;20259;-55
2021/12/11 10:26:45;;;;;;;15.90;10.27;;;;;;;-0.11;100.00;100935.28;5023924;28;20225;-55
2021/12/11 10:29:14;;;;;;;19.93;12.67;;;;;;;-0.33;100.00;100936.00;5030527;28;20242;-54
2021/12/11 10:31:46;;;;;;;19.47;11.40;;;;;;;-0.36;100.00;100928.13;5011357;28;20258;-55
2021/12/11 10:34:15;;;;;;;21.37;11.00;;;;;;;-0.37;100.00;100931.53;5021624;28;20269;-55
2021/12/11 10:36:44;;;;;;;19.03;10.93;;;;;;;-0.28;100.00;100927.69;5016734;28;20309;-56
2021/12/11 10:39:12;;;;;;;20.93;12.50;;;;;;;-0.17;100.00;100928.16;5012629;28;20664;-54
2021/12/11 10:41:39;;;;;;;20.77;12.10;;;;;;;-0.23;100.00;100935.63;5013888;28;20267;-53
2021/12/11 10:44:08;;;;;;;24.27;12.73;;;;;;;-0.28;100.00;100942.25;5024767;28;20583;-53
2021/12/11 10:46:38;;;;;;;21.30;13.27;;;;;;;-0.37;100.00;100947.00;5023011;28;20250;-55
2021/12/11 10:49:08;;;;;;;20.70;12.87;;;;;;;-0.23;100.00;100950.22;5022879;28;20721;-55
2021/12/11 10:51:41;;;;;;;22.17;11.57;;;;;;;-0.08;100.00;100956.94;5027148;28;20341;-54
2021/12/11 10:54:08;;;;;;;21.90;12.37;;;;;;;0.04;100.00;100955.75;5032019;28;20235;-55
2021/12/11 10:56:35;;;;;;;27.43;13.73;;;;;;;-0.24;100.00;100967.41;5020882;28;20250;-55
2021/12/11 10:59:08;;;;;;;20.40;12.70;;;;;;;-0.31;100.00;100967.94;5032688;28;20314;-55
2021/12/11 11:01:38;;;;;;;19.83;12.30;;;;;;;-0.21;100.00;100980.44;5012439;28;20229;-54
2021/12/11 11:04:10;;;;;;;17.87;12.33;;;;;;;-0.39;100.00;100975.28;5018909;28;21347;-54
2021/12/11 11:06:36;;;;;;;23.27;13.30;;;;;;;-0.31;100.00;100983.41;5025021;28;20255;-56
2021/12/11 11:09:04;;;;;;;20.50;13.30;;;;;;;-0.26;100.00;100987.06;5036513;28;20290;-54
2021/12/11 11:11:32;;;;;;;23.07;13.17;;;;;;;-0.06;100.00;100981.16;5017682;28;20237;-56
2021/12/11 11:14:01;;;;;;;22.10;13.60;;;;;;;-0.02;100.00;100988.22;5034677;28;20261;-56
2021/12/11 11:16:28;;;;;;;22.23;13.63;;;;;;;0.06;100.00;100985.97;5028020;28;20498;-55
2021/12/11 11:18:54;;;;;;;18.10;11.63;;;;;;;0.17;100.00;100989.03;5020999;28;20228;-55
2021/12/11 11:21:25;;;;;;;19.37;13.20;;;;;;;0.33;100.00;100996.66;5030408;28;20316;-55